Time;durP1;ratioP1;P1;durP2;ratioP2;P2;SDS_P1;SDS_P2;PMS_P1;PMS_P2;Temp;Humidity;BMP_temperature;BMP_pressure;BME280_temperature;BME280_humidity;BME280_pressure;Samples;Min_cycle;Max_cycle;Signal;HPM_P1;HPM_P2
2022/07/31 00:01:59;;;;;;;6.07;4.22;;;36.40;94.30;;;;;;5035057;28;20185;-95
2022/07/31 00:11:12;;;;;;;5.32;4.82;;;36.40;94.20;;;;;;5049406;28;20213;-94
2022/07/31 00:13:43;;;;;;;7.18;4.82;;;36.50;94.80;;;;;;5049127;28;20215;-93
2022/07/31 00:19:27;;;;;;;5.25;4.75;;;37.00;94.30;;;;;;5033181;28;20260;-94
2022/07/31 00:22:00;;;;;;;6.45;4.70;;;37.10;93.50;;;;;;5031501;28;20205;-95
2022/07/31 00:24:34;;;;;;;6.75;4.50;;;37.00;93.50;;;;;;5032261;28;20233;-93
2022/07/31 00:27:09;;;;;;;9.82;4.75;;;36.80;93.10;;;;;;5032009;28;20209;-95
2022/07/31 00:32:46;;;;;;;5.78;4.50;;;36.60;93.20;;;;;;5029577;28;20209;-95
2022/07/31 00:35:36;;;;;;;5.03;4.60;;;36.40;93.70;;;;;;5026440;28;20304;-95
2022/07/31 00:38:20;;;;;;;7.95;5.00;;;36.20;93.70;;;;;;5031957;28;20212;-93
2022/07/31 00:41:09;;;;;;;6.40;4.90;;;36.30;93.50;;;;;;5036067;28;20360;-93
2022/07/31 00:46:57;;;;;;;8.20;4.72;;;36.20;94.80;;;;;;5037579;28;20196;-93
2022/07/31 00:49:30;;;;;;;5.47;4.97;;;36.10;94.70;;;;;;5031373;28;20212;-94
2022/07/31 01:00:59;;;;;;;6.25;5.18;;;35.90;94.90;;;;;;5034981;28;20202;-94
2022/07/31 01:03:33;;;;;;;8.80;4.60;;;35.50;95.30;;;;;;5025746;28;20218;-93
2022/07/31 01:06:22;;;;;;;7.78;4.90;;;35.50;96.30;;;;;;5034333;28;20213;-93
2022/07/31 01:12:07;;;;;;;6.18;5.00;;;35.60;96.40;;;;;;5033761;28;20214;-93
2022/07/31 01:14:51;;;;;;;7.00;5.13;;;36.00;95.50;;;;;;5221828;23;20233;-94
2022/07/31 01:17:27;;;;;;;5.72;4.95;;;36.50;95.10;;;;;;5015810;28;20237;-94
2022/07/31 01:20:05;;;;;;;5.57;5.18;;;36.80;95.20;;;;;;5014988;28;20228;-93
2022/07/31 01:23:07;;;;;;;5.45;4.47;;;37.20;95.40;;;;;;5018215;28;20210;-94
2022/07/31 01:25:48;;;;;;;5.32;4.82;;;37.80;94.50;;;;;;5029417;28;20205;-93
2022/07/31 01:28:34;;;;;;;5.20;4.68;;;38.10;92.30;;;;;;5030988;28;20210;-94
2022/07/31 01:31:12;;;;;;;7.00;4.72;;;38.00;92.20;;;;;;5030808;28;20270;-94
2022/07/31 01:34:05;;;;;;;5.30;4.32;;;38.20;91.80;;;;;;5038527;28;20213;-92
2022/07/31 01:39:32;;;;;;;4.90;4.32;;;38.30;91.20;;;;;;5039447;28;20210;-94
2022/07/31 01:42:12;;;;;;;4.70;4.25;;;38.10;90.70;;;;;;5035505;28;20209;-93
2022/07/31 01:44:55;;;;;;;4.90;4.50;;;38.20;90.50;;;;;;5034954;28;20213;-93
2022/07/31 01:51:07;;;;;;;5.47;4.50;;;37.50;90.60;;;;;;5007064;28;20205;-95
2022/07/31 01:56:17;;;;;;;5.20;4.57;;;37.40;90.00;;;;;;4700008;23;10001360;-95
2022/07/31 01:58:51;;;;;;;4.72;4.32;;;37.00;90.50;;;;;;5030094;28;20752;-94
2022/07/31 02:01:25;;;;;;;4.50;4.10;;;36.60;90.60;;;;;;5031111;28;20205;-94
2022/07/31 02:03:59;;;;;;;4.53;4.13;;;36.00;91.40;;;;;;5029795;28;20220;-94
2022/07/31 02:06:44;;;;;;;4.88;4.40;;;35.90;91.30;;;;;;5029796;28;20225;-94
2022/07/31 02:12:30;;;;;;;5.32;4.43;;;34.60;92.30;;;;;;5027072;28;20304;-95
2022/07/31 02:15:05;;;;;;;5.78;4.50;;;34.00;92.40;;;;;;5022168;28;20291;-95
2022/07/31 02:17:37;;;;;;;5.70;4.55;;;33.50;92.80;;;;;;5020840;28;20229;-95
2022/07/31 02:20:11;;;;;;;4.93;4.13;;;33.20;93.70;;;;;;5022273;28;20665;-95
2022/07/31 02:22:45;;;;;;;4.53;4.13;;;32.90;93.20;;;;;;5021452;28;20700;-95
2022/07/31 02:25:17;;;;;;;4.78;4.07;;;32.70;92.80;;;;;;5021726;28;20564;-95
2022/07/31 02:27:50;;;;;;;4.75;4.28;;;32.60;92.80;;;;;;5021592;28;20229;-95
2022/07/31 02:30:30;;;;;;;5.75;4.35;;;32.40;93.80;;;;;;5020418;28;20233;-95
2022/07/31 02:33:12;;;;;;;5.45;4.50;;;32.20;94.50;;;;;;5020806;28;20236;-95
2022/07/31 02:35:46;;;;;;;6.05;4.38;;;32.00;94.20;;;;;;5022215;28;20260;-95
2022/07/31 02:38:23;;;;;;;6.28;4.55;;;31.80;94.50;;;;;;5021075;28;21019;-95
2022/07/31 02:40:58;;;;;;;5.30;4.80;;;31.70;94.40;;;;;;5019774;28;20287;-95
2022/07/31 02:43:32;;;;;;;6.28;4.38;;;31.60;95.60;;;;;;5021762;28;20197;-95
2022/07/31 02:46:04;;;;;;;4.97;4.47;;;31.40;95.40;;;;;;5020822;28;20230;-96
2022/07/31 02:48:37;;;;;;;4.50;4.10;;;31.20;96.10;;;;;;5018343;28;20210;-95
2022/07/31 02:51:09;;;;;;;9.02;4.10;;;31.20;95.40;;;;;;5019094;28;20256;-96
2022/07/31 02:53:45;;;;;;;5.55;4.30;;;31.00;96.50;;;;;;5019584;28;20466;-96
2022/07/31 02:56:19;;;;;;;5.93;4.88;;;30.80;97.70;;;;;;5020226;28;20243;-94
2022/07/31 02:58:52;;;;;;;4.30;3.90;;;30.70;97.00;;;;;;5003604;28;20253;-94
2022/07/31 03:01:25;;;;;;;4.80;4.30;;;30.60;97.40;;;;;;5000429;28;20209;-93
2022/07/31 03:03:56;;;;;;;4.78;3.88;;;30.40;98.00;;;;;;5000566;28;20681;-94
2022/07/31 03:06:29;;;;;;;9.48;4.43;;;30.20;98.10;;;;;;5000662;28;20210;-95
2022/07/31 03:09:04;;;;;;;4.78;4.38;;;30.10;99.30;;;;;;5000511;28;20214;-95
2022/07/31 03:11:35;;;;;;;4.50;4.10;;;29.90;99.60;;;;;;5000432;28;20228;-95
2022/07/31 03:14:08;;;;;;;6.20;4.60;;;29.80;97.00;;;;;;5000099;28;20206;-95
2022/07/31 03:16:50;;;;;;;4.60;4.20;;;29.70;97.00;;;;;;5000454;28;20264;-94
2022/07/31 03:19:27;;;;;;;4.18;3.75;;;29.70;97.60;;;;;;5008016;28;20238;-94
2022/07/31 03:22:02;;;;;;;4.78;4.00;;;29.60;96.40;;;;;;5001303;28;20218;-95
2022/07/31 03:24:37;;;;;;;4.68;4.13;;;29.50;96.10;;;;;;5003567;28;20221;-94
2022/07/31 03:27:09;;;;;;;5.93;4.57;;;29.30;95.50;;;;;;5000094;28;20738;-95
2022/07/31 03:29:41;;;;;;;4.03;3.72;;;29.20;96.30;;;;;;5000920;28;20206;-95
2022/07/31 03:32:17;;;;;;;4.28;3.90;;;29.10;96.00;;;;;;4998436;28;20229;-95
2022/07/31 03:34:48;;;;;;;4.45;4.05;;;28.90;96.40;;;;;;4999106;28;20210;-95
2022/07/31 03:37:20;;;;;;;5.63;4.30;;;28.70;96.40;;;;;;4999491;28;20565;-94
2022/07/31 03:39:53;;;;;;;5.03;4.15;;;28.60;97.00;;;;;;4999616;28;20242;-96
2022/07/31 03:42:26;;;;;;;4.68;4.28;;;28.50;98.20;;;;;;4999294;28;20245;-94
2022/07/31 03:44:58;;;;;;;5.00;4.40;;;28.30;97.30;;;;;;5000019;28;20255;-95
2022/07/31 04:03:49;;;;;;;6.40;5.80;;;27.50;99.10;;;;;;5049026;28;20201;-96
2022/07/31 04:06:23;;;;;;;6.80;5.50;;;27.40;99.10;;;;;;5046924;28;20201;-95
2022/07/31 04:08:54;;;;;;;5.93;5.43;;;27.30;99.50;;;;;;5039152;28;20235;-96
2022/07/31 04:11:30;;;;;;;9.73;6.70;;;27.20;99.80;;;;;;5046408;28;20209;-95
2022/07/31 04:14:03;;;;;;;9.17;7.37;;;27.10;99.90;;;;;;5057130;28;20216;-94
2022/07/31 04:16:39;;;;;;;10.73;9.73;;;27.00;99.90;;;;;;5071503;28;20203;-95
2022/07/31 04:22:43;;;;;;;7.53;6.17;;;26.80;99.90;;;;;;5244103;23;20338;-95
2022/07/31 04:28:12;;;;;;;6.40;5.80;;;26.60;99.90;;;;;;5057333;28;20232;-95
2022/07/31 04:30:47;;;;;;;6.60;5.50;;;26.60;99.90;;;;;;5057028;28;20193;-95
2022/07/31 04:33:19;;;;;;;8.97;6.00;;;26.50;99.90;;;;;;5056168;28;20215;-94
2022/07/31 04:36:13;;;;;;;6.40;5.90;;;26.40;99.90;;;;;;5050198;28;20204;-95
2022/07/31 04:39:00;;;;;;;5.97;5.03;;;26.30;99.90;;;;;;5050335;28;20247;-95
2022/07/31 04:41:36;;;;;;;6.43;5.80;;;26.10;99.90;;;;;;5041917;28;20231;-94
2022/07/31 04:44:07;;;;;;;6.97;6.00;;;26.10;99.90;;;;;;5039598;28;20239;-94
2022/07/31 04:46:39;;;;;;;6.40;5.80;;;26.00;99.90;;;;;;5040635;28;20205;-95
2022/07/31 04:49:13;;;;;;;6.20;5.60;;;26.00;99.90;;;;;;5048779;28;20219;-95
2022/07/31 04:51:46;;;;;;;6.77;6.17;;;25.90;99.90;;;;;;5055763;28;20274;-95
2022/07/31 04:54:18;;;;;;;7.20;6.30;;;25.90;99.90;;;;;;5056341;28;20193;-95
2022/07/31 04:56:50;;;;;;;7.63;6.00;;;25.80;99.90;;;;;;5054956;28;20212;-95
2022/07/31 04:59:22;;;;;;;6.53;5.93;;;25.80;99.90;;;;;;5045666;28;20259;-95
2022/07/31 05:02:14;;;;;;;8.13;6.47;;;25.70;99.90;;;;;;5036957;28;20720;-95
2022/07/31 05:04:45;;;;;;;7.00;6.37;;;25.70;99.90;;;;;;5036965;28;20209;-95
2022/07/31 05:09:59;;;;;;;7.87;7.07;;;25.60;99.90;;;;;;4960500;28;20266;-96
2022/07/31 05:12:32;;;;;;;7.47;6.77;;;25.50;99.90;;;;;;4983427;28;20215;-95
2022/07/31 05:15:19;;;;;;;8.30;7.50;;;25.40;99.90;;;;;;4982534;28;20213;-95
2022/07/31 05:20:50;;;;;;;8.87;8.03;;;25.30;99.90;;;;;;4985854;28;20207;-94
2022/07/31 05:23:21;;;;;;;9.90;7.37;;;25.20;99.90;;;;;;4978461;28;20207;-95
2022/07/31 05:25:55;;;;;;;9.00;7.50;;;25.20;99.90;;;;;;4979587;28;20212;-95
2022/07/31 05:28:28;;;;;;;9.90;7.37;;;25.10;99.90;;;;;;4981082;28;20218;-94
2022/07/31 05:31:01;;;;;;;7.70;7.00;;;25.00;99.90;;;;;;4991782;28;20235;-94
2022/07/31 05:36:27;;;;;;;8.97;7.27;;;24.90;99.90;;;;;;4987246;28;20211;-94
2022/07/31 05:39:03;;;;;;;11.43;7.63;;;24.90;99.90;;;;;;5004014;28;20269;-95
2022/07/31 05:41:37;;;;;;;8.10;7.40;;;24.80;99.90;;;;;;4996320;28;20190;-95
2022/07/31 05:44:09;;;;;;;8.33;7.53;;;24.80;99.90;;;;;;4998131;28;20203;-94
2022/07/31 05:46:41;;;;;;;8.77;7.60;;;24.70;99.90;;;;;;4999906;28;20211;-94
2022/07/31 05:49:14;;;;;;;7.97;7.27;;;24.70;99.90;;;;;;4998457;28;20242;-94
2022/07/31 05:51:52;;;;;;;12.50;7.90;;;24.60;99.90;;;;;;4997992;28;20226;-95
2022/07/31 05:54:31;;;;;;;9.63;7.20;;;24.50;99.90;;;;;;5093241;23;20240;-95
2022/07/31 05:57:07;;;;;;;8.80;7.53;;;24.50;99.90;;;;;;5048619;28;20232;-95
2022/07/31 05:59:44;;;;;;;8.50;7.20;;;24.40;99.90;;;;;;5046753;28;20266;-94
2022/07/31 06:02:28;;;;;;;8.97;7.60;;;24.40;99.90;;;;;;5047057;28;20209;-95
2022/07/31 06:05:00;;;;;;;7.50;6.90;;;24.30;99.90;;;;;;5041640;28;20232;-94
2022/07/31 06:07:32;;;;;;;7.60;6.80;;;24.20;99.90;;;;;;5040939;28;20248;-96
2022/07/31 06:10:05;;;;;;;8.50;7.53;;;24.20;99.90;;;;;;5041594;28;20209;-94
2022/07/31 06:12:41;;;;;;;8.37;7.20;;;24.10;99.90;;;;;;5039818;28;20201;-93
2022/07/31 06:15:12;;;;;;;8.43;7.67;;;24.00;99.90;;;;;;5040173;28;20274;-94
2022/07/31 06:17:44;;;;;;;8.17;7.47;;;23.90;99.90;;;;;;5040526;28;20209;-94
2022/07/31 06:20:15;;;;;;;8.17;7.47;;;23.90;99.90;;;;;;5041712;28;20302;-94
2022/07/31 06:22:47;;;;;;;9.60;7.60;;;23.80;99.90;;;;;;5042584;28;20209;-94
2022/07/31 06:25:18;;;;;;;8.63;7.00;;;23.80;99.90;;;;;;5056936;28;20247;-95
2022/07/31 06:27:53;;;;;;;7.90;7.10;;;23.70;99.90;;;;;;5057592;28;20205;-95
2022/07/31 06:30:30;;;;;;;7.97;7.30;;;23.70;99.90;;;;;;5057075;28;20220;-95
2022/07/31 06:33:01;;;;;;;7.90;7.20;;;23.60;99.90;;;;;;5050476;28;20267;-95
2022/07/31 06:35:38;;;;;;;8.53;7.73;;;23.60;99.90;;;;;;5057133;28;20223;-94
2022/07/31 06:38:11;;;;;;;7.77;7.07;;;23.60;99.90;;;;;;5056947;28;20236;-95
2022/07/31 06:40:46;;;;;;;8.13;7.43;;;23.50;99.90;;;;;;5048973;28;20248;-95
2022/07/31 06:43:19;;;;;;;7.37;6.77;;;23.50;99.90;;;;;;5044283;28;20282;-94
2022/07/31 06:45:51;;;;;;;7.90;7.20;;;23.50;99.90;;;;;;5044699;28;20240;-94
2022/07/31 06:48:24;;;;;;;9.00;7.33;;;23.40;99.90;;;;;;5041848;28;20575;-94
2022/07/31 06:50:59;;;;;;;8.17;7.40;;;23.40;99.90;;;;;;5038963;28;20219;-94
2022/07/31 06:53:50;;;;;;;12.83;7.50;;;23.40;99.90;;;;;;5040151;28;20217;-94
2022/07/31 06:56:22;;;;;;;8.47;7.43;;;23.40;99.90;;;;;;5046537;28;20197;-95
2022/07/31 06:58:58;;;;;;;8.10;7.30;;;23.30;99.90;;;;;;5050727;28;20224;-94
2022/07/31 07:01:29;;;;;;;8.93;8.00;;;23.30;99.90;;;;;;5050353;28;20235;-95
2022/07/31 07:04:02;;;;;;;9.73;7.80;;;23.30;99.90;;;;;;5044833;28;20199;-94
2022/07/31 07:06:33;;;;;;;8.50;7.70;;;23.20;99.90;;;;;;5039184;28;20212;-94
2022/07/31 07:09:04;;;;;;;8.60;7.80;;;23.10;99.90;;;;;;5042520;28;20650;-94
2022/07/31 07:11:36;;;;;;;8.90;8.00;;;23.10;99.90;;;;;;5050620;28;20247;-95
2022/07/31 07:14:09;;;;;;;8.67;7.70;;;23.10;99.90;;;;;;5044845;28;20209;-94
2022/07/31 07:16:41;;;;;;;8.47;7.67;;;23.10;99.90;;;;;;5043372;28;20216;-94
2022/07/31 07:25:05;;;;;;;10.37;7.77;;;23.00;99.90;;;;;;5047083;28;20224;-94
2022/07/31 07:27:50;;;;;;;9.27;7.97;;;23.00;99.90;;;;;;5046425;28;20216;-94
2022/07/31 07:30:30;;;;;;;12.83;7.93;;;23.00;99.90;;;;;;5046601;28;20207;-95
2022/07/31 07:33:12;;;;;;;8.73;7.83;;;23.00;99.90;;;;;;5046107;28;20215;-93
2022/07/31 07:44:50;;;;;;;10.73;8.93;;;22.80;99.90;;;;;;5053574;28;20211;-94
2022/07/31 07:47:26;;;;;;;9.53;8.63;;;22.70;99.90;;;;;;5056255;28;20234;-94
2022/07/31 07:50:19;;;;;;;11.20;8.47;;;22.70;99.90;;;;;;5050112;28;20277;-95
2022/07/31 07:52:51;;;;;;;9.17;8.30;;;22.60;99.90;;;;;;5046838;28;20200;-94
2022/07/31 07:55:25;;;;;;;9.93;8.93;;;22.60;99.90;;;;;;5045313;28;20239;-94
2022/07/31 07:57:58;;;;;;;9.47;8.67;;;22.60;99.90;;;;;;5153948;23;20224;-96
2022/07/31 08:00:31;;;;;;;10.80;9.03;;;22.50;99.90;;;;;;5049992;28;20301;-95
2022/07/31 08:03:16;;;;;;;9.07;8.17;;;22.50;99.90;;;;;;5053504;28;20193;-95
2022/07/31 08:06:10;;;;;;;9.60;8.60;;;22.40;99.90;;;;;;5054486;28;20199;-95
2022/07/31 08:08:42;;;;;;;10.03;9.13;;;22.40;99.90;;;;;;5053812;28;20240;-95
2022/07/31 08:11:14;;;;;;;10.53;9.50;;;22.40;99.90;;;;;;5050660;28;20217;-94
2022/07/31 08:16:35;;;;;;;10.63;8.97;;;22.20;99.90;;;;;;5047892;28;20312;-95
2022/07/31 08:19:25;;;;;;;10.57;9.47;;;22.20;99.90;;;;;;5046363;28;20212;-95
2022/07/31 08:22:08;;;;;;;10.40;9.40;;;22.10;99.90;;;;;;5043989;28;20264;-95
2022/07/31 08:24:39;;;;;;;10.50;9.53;;;22.10;99.90;;;;;;5045603;28;20232;-95
2022/07/31 08:27:26;;;;;;;11.00;9.83;;;22.10;99.90;;;;;;5045732;28;20221;-95
2022/07/31 08:30:10;;;;;;;12.70;9.90;;;22.10;99.90;;;;;;5039227;28;20219;-95
2022/07/31 08:32:42;;;;;;;10.20;9.30;;;22.10;99.90;;;;;;5193429;23;20609;-94
2022/07/31 08:35:24;;;;;;;10.20;9.30;;;22.00;99.90;;;;;;5038233;28;20263;-94
2022/07/31 08:37:56;;;;;;;10.77;9.37;;;21.90;99.90;;;;;;5041240;28;20240;-93
2022/07/31 08:40:34;;;;;;;10.30;9.40;;;21.90;99.90;;;;;;5037220;28;20240;-94
2022/07/31 08:43:13;;;;;;;11.93;9.63;;;21.80;99.90;;;;;;5038015;28;20227;-94
2022/07/31 08:48:47;;;;;;;10.10;9.30;;;21.70;99.90;;;;;;5041018;28;20221;-94
2022/07/31 08:51:23;;;;;;;9.93;9.13;;;21.70;99.90;;;;;;5038017;28;20267;-94
2022/07/31 08:53:55;;;;;;;10.30;9.37;;;21.60;99.90;;;;;;5039016;28;20326;-96
2022/07/31 08:56:26;;;;;;;10.50;9.50;;;21.60;99.90;;;;;;5039030;28;20208;-95
2022/07/31 08:58:59;;;;;;;9.77;9.00;;;21.50;99.90;;;;;;5038534;28;20200;-95
2022/07/31 09:01:37;;;;;;;10.90;9.93;;;21.50;99.90;;;;;;5039479;28;20358;-93
2022/07/31 09:04:09;;;;;;;10.57;9.57;;;21.40;99.90;;;;;;5037206;28;20216;-94
2022/07/31 09:06:44;;;;;;;11.33;10.33;;;21.40;99.90;;;;;;5038678;28;20212;-93
2022/07/31 09:09:17;;;;;;;11.30;10.17;;;21.40;99.90;;;;;;5039028;28;20220;-94
2022/07/31 09:11:50;;;;;;;11.63;9.80;;;21.40;99.90;;;;;;5037095;28;20217;-94
2022/07/31 09:14:30;;;;;;;10.90;9.80;;;21.30;99.90;;;;;;5041316;28;20622;-94
2022/07/31 09:17:03;;;;;;;11.47;10.30;;;21.30;99.90;;;;;;5041001;28;20211;-94
2022/07/31 09:19:41;;;;;;;11.10;10.03;;;21.30;99.90;;;;;;5040741;28;20220;-94
2022/07/31 09:22:29;;;;;;;12.13;10.77;;;21.20;99.90;;;;;;5039229;28;20267;-94
2022/07/31 09:25:14;;;;;;;10.97;9.97;;;21.20;99.90;;;;;;5040841;28;20223;-94
2022/07/31 09:27:47;;;;;;;11.80;10.60;;;21.20;99.90;;;;;;5040704;28;20224;-94
2022/07/31 09:30:17;;;;;;;10.73;9.73;;;21.20;99.90;;;;;;5039834;28;20236;-97
2022/07/31 09:32:49;;;;;;;13.20;10.07;;;21.10;99.90;;;;;;5041039;28;20252;-94
2022/07/31 09:35:21;;;;;;;10.93;9.93;;;21.10;99.90;;;;;;5040784;28;20601;-94
2022/07/31 09:37:55;;;;;;;11.17;10.07;;;21.00;99.90;;;;;;5042533;28;20229;-94
2022/07/31 09:40:38;;;;;;;11.93;10.73;;;20.90;99.90;;;;;;5039311;28;20653;-94
2022/07/31 09:43:28;;;;;;;12.07;10.93;;;20.90;99.90;;;;;;5040212;28;20205;-94
2022/07/31 09:46:01;;;;;;;12.93;10.77;;;20.80;99.90;;;;;;5040752;28;20205;-94
2022/07/31 09:48:33;;;;;;;11.17;10.17;;;20.80;99.90;;;;;;5041701;28;20225;-94
2022/07/31 09:51:11;;;;;;;12.07;10.73;;;20.80;99.90;;;;;;5041542;28;20205;-93
2022/07/31 09:53:48;;;;;;;11.60;10.60;;;20.80;99.90;;;;;;5040987;28;20216;-94
2022/07/31 09:56:30;;;;;;;11.77;10.67;;;20.80;99.90;;;;;;5040920;28;20274;-94
2022/07/31 09:59:02;;;;;;;12.10;10.90;;;20.80;99.90;;;;;;5040877;28;20208;-94
2022/07/31 10:01:36;;;;;;;11.77;10.67;;;20.80;99.90;;;;;;5039757;28;20236;-94
2022/07/31 10:04:08;;;;;;;11.93;10.83;;;20.70;99.90;;;;;;5040701;28;20213;-93
2022/07/31 10:06:40;;;;;;;12.37;11.00;;;20.70;99.90;;;;;;5041371;28;20625;-94
2022/07/31 10:09:14;;;;;;;11.13;10.10;;;20.60;99.90;;;;;;5053804;28;20205;-94
2022/07/31 10:11:46;;;;;;;12.00;10.87;;;20.60;99.90;;;;;;5058560;28;20228;-93
2022/07/31 10:14:24;;;;;;;12.03;10.83;;;20.60;99.90;;;;;;5058676;28;20220;-94
2022/07/31 10:17:00;;;;;;;12.70;11.57;;;20.60;99.90;;;;;;5058491;28;20264;-94
2022/07/31 10:19:36;;;;;;;11.57;10.50;;;20.50;99.90;;;;;;5049759;28;20687;-94
2022/07/31 10:22:10;;;;;;;12.63;10.40;;;20.50;99.90;;;;;;5039591;28;20236;-95
2022/07/31 10:24:48;;;;;;;15.13;10.93;;;20.50;99.90;;;;;;5039985;28;20213;-94
2022/07/31 10:27:21;;;;;;;12.20;11.00;;;20.40;99.90;;;;;;5039728;28;20266;-94
2022/07/31 10:29:52;;;;;;;12.20;11.10;;;20.40;99.90;;;;;;5038554;28;20213;-94
2022/07/31 10:32:24;;;;;;;12.67;11.40;;;20.40;99.90;;;;;;5037253;28;20259;-95
2022/07/31 10:34:56;;;;;;;12.60;11.40;;;20.30;99.90;;;;;;5039263;28;20209;-94
2022/07/31 10:37:35;;;;;;;12.33;11.13;;;20.30;99.90;;;;;;5040586;28;20217;-94
2022/07/31 10:40:20;;;;;;;12.30;11.20;;;20.30;99.90;;;;;;5038408;28;20266;-94
2022/07/31 10:43:00;;;;;;;13.27;11.77;;;20.20;99.90;;;;;;5039104;28;21162;-94
2022/07/31 10:45:33;;;;;;;12.40;11.20;;;20.20;99.90;;;;;;5040252;28;20204;-95
2022/07/31 10:48:11;;;;;;;12.53;11.30;;;20.20;99.90;;;;;;5043104;28;20212;-94
2022/07/31 10:50:43;;;;;;;13.33;12.00;;;20.10;99.90;;;;;;5038799;28;20204;-94
2022/07/31 10:53:16;;;;;;;12.40;11.20;;;20.00;99.90;;;;;;5038703;28;20209;-93
2022/07/31 10:56:00;;;;;;;12.57;11.37;;;20.00;99.90;;;;;;5039688;28;20232;-94
2022/07/31 10:58:31;;;;;;;13.40;12.20;;;20.00;99.90;;;;;;5040232;28;20213;-94
2022/07/31 11:01:07;;;;;;;13.03;11.80;;;20.00;99.90;;;;;;5041758;28;20608;-94
2022/07/31 11:03:45;;;;;;;12.30;11.30;;;19.90;99.90;;;;;;5039156;28;20270;-95
2022/07/31 11:06:17;;;;;;;12.50;11.33;;;19.90;99.90;;;;;;5041164;28;20212;-95
2022/07/31 11:08:51;;;;;;;12.63;10.93;;;19.90;99.90;;;;;;5039936;28;20232;-94
2022/07/31 11:11:36;;;;;;;13.30;11.90;;;19.90;99.90;;;;;;5039012;28;20271;-95
2022/07/31 11:14:07;;;;;;;12.67;11.57;;;19.80;99.90;;;;;;5039168;28;20201;-94
2022/07/31 11:16:51;;;;;;;13.03;11.77;;;19.70;99.90;;;;;;5039066;28;20270;-94
2022/07/31 11:19:22;;;;;;;12.80;11.47;;;19.70;99.90;;;;;;5038100;28;20228;-95
2022/07/31 11:21:56;;;;;;;13.57;11.60;;;19.70;99.90;;;;;;5036484;28;20260;-95
2022/07/31 11:24:57;;;;;;;13.03;11.83;;;19.60;99.90;;;;;;5019981;28;20202;-95
2022/07/31 11:27:34;;;;;;;14.33;11.70;;;19.60;99.90;;;;;;5018485;28;20214;-95
2022/07/31 11:30:07;;;;;;;13.53;12.30;;;19.60;99.90;;;;;;5019548;28;20228;-95
2022/07/31 11:32:47;;;;;;;12.30;11.27;;;19.50;99.90;;;;;;5021170;28;20721;-94
2022/07/31 11:35:32;;;;;;;13.37;12.03;;;19.50;99.90;;;;;;5022840;28;20193;-95
2022/07/31 11:38:03;;;;;;;12.47;11.20;;;19.40;99.90;;;;;;5037077;28;20206;-94
2022/07/31 11:40:35;;;;;;;12.03;10.93;;;19.30;99.90;;;;;;5036364;28;20220;-96
2022/07/31 11:43:13;;;;;;;12.67;11.10;;;19.30;99.90;;;;;;5029754;28;20225;-95
2022/07/31 11:45:59;;;;;;;12.80;11.57;;;19.30;99.90;;;;;;5021437;28;20600;-96
2022/07/31 11:48:33;;;;;;;13.10;11.70;;;19.30;99.90;;;;;;5020606;28;20218;-95
2022/07/31 11:51:20;;;;;;;12.37;11.07;;;19.20;99.90;;;;;;5018391;28;20217;-95
2022/07/31 11:53:53;;;;;;;12.30;11.20;;;19.20;99.90;;;;;;5018392;28;20209;-93
2022/07/31 11:56:28;;;;;;;15.87;11.50;;;19.20;99.90;;;;;;5018304;28;20212;-92
2022/07/31 11:59:01;;;;;;;12.43;11.23;;;19.20;99.90;;;;;;5021038;28;20228;-92
2022/07/31 12:01:34;;;;;;;12.33;11.13;;;19.30;99.90;;;;;;5017942;28;20213;-96
2022/07/31 12:04:12;;;;;;;11.50;10.40;;;19.20;99.90;;;;;;5017286;28;20689;-94
2022/07/31 12:06:49;;;;;;;12.83;11.20;;;19.20;99.90;;;;;;5016896;28;20296;-94
2022/07/31 12:09:25;;;;;;;11.70;10.60;;;19.20;99.90;;;;;;5017782;28;20291;-94
2022/07/31 12:12:19;;;;;;;12.37;11.07;;;19.20;99.90;;;;;;5017246;28;20209;-94
2022/07/31 12:14:52;;;;;;;11.83;10.77;;;19.10;99.90;;;;;;5017556;28;20210;-93
2022/07/31 12:17:24;;;;;;;12.20;10.93;;;19.10;99.90;;;;;;5017007;28;20525;-94
2022/07/31 12:19:56;;;;;;;12.73;11.53;;;19.10;99.90;;;;;;5021808;28;20575;-93
2022/07/31 12:22:27;;;;;;;12.50;11.27;;;19.10;99.90;;;;;;5015776;28;20287;-94
2022/07/31 12:25:02;;;;;;;13.97;11.67;;;19.00;99.90;;;;;;5018603;28;20333;-94
2022/07/31 12:27:38;;;;;;;12.00;11.00;;;18.90;99.90;;;;;;5018704;28;20213;-94
2022/07/31 12:30:23;;;;;;;13.10;11.17;;;18.90;99.90;;;;;;5022199;28;20210;-93
2022/07/31 12:33:07;;;;;;;12.43;11.13;;;18.80;99.90;;;;;;5018973;28;20221;-92
2022/07/31 12:35:40;;;;;;;11.63;10.70;;;18.90;99.90;;;;;;5018179;28;20558;-93
2022/07/31 12:38:27;;;;;;;11.80;10.67;;;18.90;99.90;;;;;;5019030;28;20221;-94
2022/07/31 12:41:15;;;;;;;12.40;11.20;;;18.80;99.90;;;;;;5018704;28;20210;-93
2022/07/31 12:43:46;;;;;;;12.50;11.10;;;18.70;99.90;;;;;;5020101;28;20299;-94
2022/07/31 12:46:36;;;;;;;14.27;11.87;;;18.70;99.90;;;;;;5020089;28;20220;-94
2022/07/31 12:49:09;;;;;;;13.13;11.60;;;18.70;99.90;;;;;;5026505;28;20233;-94
2022/07/31 12:51:42;;;;;;;12.50;10.67;;;18.70;99.90;;;;;;5022410;28;20296;-95
2022/07/31 12:54:17;;;;;;;12.00;10.80;;;18.70;99.90;;;;;;5037156;28;20208;-94
2022/07/31 12:56:50;;;;;;;12.33;11.13;;;18.70;99.90;;;;;;5038523;28;20209;-94
2022/07/31 12:59:23;;;;;;;12.27;11.07;;;18.80;99.90;;;;;;5041039;28;20189;-94
2022/07/31 13:01:57;;;;;;;13.03;11.00;;;18.70;99.90;;;;;;5057121;28;20204;-95
2022/07/31 13:04:29;;;;;;;12.57;11.40;;;18.70;99.90;;;;;;5057874;28;20230;-95
2022/07/31 13:07:03;;;;;;;12.03;11.03;;;18.70;99.90;;;;;;5060331;28;20294;-94
2022/07/31 13:09:36;;;;;;;13.00;11.57;;;18.60;99.90;;;;;;5045473;28;20216;-94
2022/07/31 13:12:09;;;;;;;12.70;11.70;;;18.60;99.90;;;;;;5043324;28;20670;-94
2022/07/31 13:14:41;;;;;;;12.47;11.33;;;18.50;99.90;;;;;;5042092;28;20224;-94
2022/07/31 13:17:16;;;;;;;12.17;11.10;;;18.50;99.90;;;;;;5040757;28;20229;-94
2022/07/31 13:19:49;;;;;;;12.53;11.37;;;18.60;99.90;;;;;;5046107;28;20243;-94
2022/07/31 13:22:21;;;;;;;14.07;12.27;;;18.60;99.90;;;;;;5048692;28;20279;-94
2022/07/31 13:24:52;;;;;;;13.83;11.67;;;18.60;99.90;;;;;;5041118;28;20231;-94
2022/07/31 13:27:23;;;;;;;12.50;11.30;;;18.60;99.90;;;;;;5041797;28;20217;-94
2022/07/31 13:29:55;;;;;;;13.43;11.20;;;18.70;99.90;;;;;;5040698;28;20209;-94
2022/07/31 13:32:30;;;;;;;12.07;10.97;;;18.70;99.90;;;;;;5040425;28;20234;-94
2022/07/31 13:35:02;;;;;;;13.43;11.70;;;18.70;99.90;;;;;;5040533;28;20216;-94
2022/07/31 13:37:54;;;;;;;13.20;11.37;;;18.70;99.90;;;;;;5040455;28;20299;-94
2022/07/31 13:43:10;;;;;;;12.73;11.53;;;18.70;99.90;;;;;;5058947;28;20271;-94
2022/07/31 13:45:41;;;;;;;12.80;11.70;;;18.70;99.90;;;;;;5059448;28;20219;-94
2022/07/31 13:48:14;;;;;;;12.77;11.40;;;18.70;99.90;;;;;;5058110;28;20212;-95
2022/07/31 13:50:46;;;;;;;12.67;10.83;;;18.70;99.90;;;;;;5059240;28;20201;-95
2022/07/31 13:53:18;;;;;;;12.37;11.07;;;18.70;99.90;;;;;;5059674;28;20205;-95
2022/07/31 13:55:49;;;;;;;12.93;11.70;;;18.70;99.90;;;;;;5056639;28;20228;-95
2022/07/31 13:58:21;;;;;;;13.07;11.90;;;18.70;99.90;;;;;;5042633;28;20208;-94
2022/07/31 14:00:52;;;;;;;12.37;11.17;;;18.80;99.90;;;;;;5041465;28;20205;-94
2022/07/31 14:03:26;;;;;;;12.73;11.53;;;18.80;99.90;;;;;;5040314;28;20260;-94
2022/07/31 14:05:59;;;;;;;13.83;11.20;;;18.80;99.90;;;;;;5040653;28;20208;-95
2022/07/31 14:08:31;;;;;;;11.77;10.77;;;18.90;99.90;;;;;;5040159;28;20211;-94
2022/07/31 14:11:19;;;;;;;13.77;12.37;;;18.90;99.90;;;;;;5038353;28;20271;-95
2022/07/31 14:13:54;;;;;;;12.60;11.40;;;19.00;99.90;;;;;;5040156;28;20217;-94
2022/07/31 14:16:32;;;;;;;16.00;12.53;;;19.00;99.90;;;;;;5039846;28;20243;-95
2022/07/31 14:19:06;;;;;;;14.37;12.90;;;19.00;99.90;;;;;;5039677;28;20212;-94
2022/07/31 14:21:39;;;;;;;14.33;12.83;;;19.10;99.90;;;;;;5038884;28;20209;-94
2022/07/31 14:24:31;;;;;;;13.90;12.50;;;19.20;99.90;;;;;;5039709;28;20324;-94
2022/07/31 14:27:03;;;;;;;15.33;12.97;;;19.20;99.90;;;;;;5039339;28;20205;-94
2022/07/31 14:29:34;;;;;;;14.37;13.07;;;19.30;99.90;;;;;;5039913;28;20657;-94
2022/07/31 14:32:06;;;;;;;13.73;11.93;;;19.40;99.90;;;;;;5039430;28;20216;-94
2022/07/31 14:34:40;;;;;;;13.33;11.43;;;19.50;99.90;;;;;;5040040;28;20298;-94
2022/07/31 14:37:13;;;;;;;14.97;12.17;;;19.50;99.90;;;;;;5040796;28;20586;-94
2022/07/31 14:39:45;;;;;;;13.37;12.07;;;19.60;99.90;;;;;;5040691;28;20562;-94
2022/07/31 14:42:16;;;;;;;14.13;12.83;;;19.60;99.90;;;;;;5039955;28;20303;-94
2022/07/31 14:44:57;;;;;;;13.07;11.97;;;19.70;99.90;;;;;;5039184;28;20232;-94
2022/07/31 14:47:29;;;;;;;12.87;11.70;;;19.80;99.90;;;;;;5068609;23;20298;-92
2022/07/31 14:50:05;;;;;;;12.83;11.57;;;19.90;99.90;;;;;;5039645;28;20632;-93
2022/07/31 14:52:44;;;;;;;12.83;11.60;;;20.00;99.90;;;;;;5039486;28;20267;-94
2022/07/31 14:55:18;;;;;;;13.47;12.17;;;20.20;99.90;;;;;;5039872;28;20283;-94
2022/07/31 14:57:50;;;;;;;12.30;11.10;;;20.40;99.90;;;;;;5051452;28;20208;-93